CAT,Max TemperatureF,Mean TemperatureF,Min TemperatureF,Max Dew PointF,MeanDew PointF,Min DewpointF,Max Humidity, Mean Humidity, Min Humidity, Max Sea Level PressureIn, Mean Sea Level PressureIn, Min Sea Level PressureIn, Max VisibilityMiles, Mean VisibilityMiles, Min VisibilityMiles, Max Wind SpeedMPH, Mean Wind SpeedMPH, Max Gust SpeedMPH,PrecipitationIn, CloudCover, Events, WindDirDegrees
2013-1-1,92,82,73,70,69,66,88,62,43,29.95,29.89,29.80,6,6,6,10,7,,0.00,3,,9
2013-1-2,92,82,71,72,70,66,100,76,46,29.98,29.90,29.83,6,6,6,21,5,,0.00,5,Rain-Thunderstorm,340
2013-1-3,87,78,69,72,69,68,100,76,44,29.95,29.91,29.83,6,6,6,9,4,,0.00,5,,293
2013-1-4,94,82,70,72,70,67,94,69,32,29.95,29.89,29.80,6,6,6,12,5,,0.00,3,Thunderstorm,169
2013-1-5,82,76,69,72,69,66,100,83,61,29.98,29.91,29.86,6,6,6,23,7,,0.00,5,Rain-Thunderstorm,89
2013-1-6,84,76,69,73,70,68,100,87,66,30.01,29.96,29.89,6,6,6,13,8,,0.00,5,,121
2013-1-7,84,76,69,72,70,69,100,85,64,30.06,29.99,29.92,6,6,6,13,6,,0.00,4,Thunderstorm,91
2013-1-8,89,79,69,70,67,64,94,69,46,30.06,30.02,29.92,6,6,6,18,8,,0.00,4,,102
2013-1-9,91,80,69,72,67,66,94,63,43,30.04,29.96,29.86,6,6,6,12,4,,0.00,3,,25
2013-1-10,93,82,71,70,68,66,94,58,41,29.98,29.90,29.80,6,6,6,13,6,,0.00,2,,318
2013-1-11,93,84,75,70,67,64,74,56,38,29.92,29.85,29.74,6,6,6,9,5,,0.00,1,,360
2013-1-12,91,81,71,70,68,64,83,61,41,29.92,29.87,29.80,6,6,6,10,6,,0.00,2,Thunderstorm,127
2013-1-13,91,81,71,70,68,66,83,64,37,29.95,29.90,29.83,6,6,6,14,5,,0.00,3,,77
2013-1-14,95,82,70,68,64,55,88,48,26,29.92,29.85,29.77,6,6,0,63,8,,0.00,2,,123
2013-1-15,95,84,73,68,65,63,78,52,36,29.92,29.85,29.77,6,6,6,10,3,,0.00,2,Thunderstorm,76
2013-1-16,80,74,69,73,70,68,100,89,70,29.95,29.89,29.83,6,6,6,9,6,,0.00,3,Rain-Thunderstorm,301
2013-1-17,76,71,66,73,70,68,100,93,83,29.95,29.92,29.86,6,6,6,16,9,,0.00,4,Rain-Thunderstorm,43
2013-1-18,78,74,69,72,69,68,100,90,69,29.95,29.89,29.80,6,6,6,16,9,,0.00,4,Rain,22
2013-1-19,71,71,71,70,70,70,94,94,94,29.83,29.77,29.71,6,6,6,9,7,,0.00,3,Rain,345
2013-1-20,,,,,,,,,,,,,,,,,,,,,,
2013-1-21,92,80,68,72,68,54,94,66,33,29.95,29.91,29.86,6,6,6,9,4,,0.00,3,Rain-Thunderstorm,280
2013-1-22,93,81,69,72,67,63,94,62,33,30.06,29.98,29.89,6,6,6,10,6,,0.00,2,,108
2013-1-23,89,79,69,64,62,61,69,50,33,30.09,30.02,29.95,6,6,6,12,9,,0.00,2,,103
2013-1-24,89,76,64,64,62,61,88,55,31,30.06,30.02,29.92,6,6,6,17,9,,0.00,2,,129
2013-1-25,89,78,68,72,64,54,78,65,44,30.04,30.01,29.98,6,6,6,8,3,,0.00,1,,107
2013-1-26,95,80,64,66,56,52,77,39,23,30.04,29.98,29.89,6,6,6,15,8,,0.00,1,,124
2013-1-27,93,80,68,66,62,57,78,50,34,30.06,30.02,29.95,6,6,6,16,9,,0.00,1,,63
2013-1-28,94,81,68,68,61,57,83,52,28,30.12,30.04,29.98,6,6,6,10,6,,0.00,1,,47
2013-1-29,93,80,66,68,63,60,78,51,32,30.09,30.04,29.98,6,6,6,13,6,,0.00,2,,70
2013-1-30,93,80,67,66,64,63,78,54,29,30.06,29.99,29.89,6,6,6,16,7,,0.00,2,,117
2013-1-31,96,84,71,64,61,59,69,45,23,30.01,29.94,29.86,6,6,6,8,6,,0.00,,,54